createdAt,value
2022-10-23T00:01:29.074Z,18.44
2022-10-23T00:04:02.220Z,18.45
2022-10-23T00:06:31.594Z,18.41
2022-10-23T00:08:58.584Z,18.46
2022-10-23T00:11:28.407Z,18.43
2022-10-23T00:13:58.630Z,18.46
2022-10-23T00:16:25.990Z,18.50
2022-10-23T00:18:52.781Z,18.38
2022-10-23T00:21:19.732Z,18.37
2022-10-23T00:23:46.734Z,18.34
2022-10-23T00:26:17.130Z,18.37
2022-10-23T00:28:44.984Z,18.37
2022-10-23T00:31:12.570Z,18.40
2022-10-23T00:33:41.146Z,18.41
2022-10-23T00:36:09.744Z,18.40
2022-10-23T00:38:37.280Z,18.43
2022-10-23T00:41:05.572Z,18.44
2022-10-23T00:43:33.412Z,18.35
2022-10-23T00:46:00.531Z,18.33
2022-10-23T00:48:28.693Z,18.32
2022-10-23T00:50:56.484Z,18.35
2022-10-23T00:53:24.893Z,18.31
2022-10-23T00:55:53.849Z,18.28
2022-10-23T00:58:21.143Z,18.30
2022-10-23T01:00:50.021Z,18.31
2022-10-23T01:03:21.375Z,18.29
2022-10-23T01:05:55.807Z,18.28
2022-10-23T01:08:34.900Z,18.30
2022-10-23T01:11:12.155Z,18.30
2022-10-23T01:13:49.074Z,18.27
2022-10-23T01:16:29.271Z,18.24
2022-10-23T01:19:12.283Z,18.24
2022-10-23T01:22:30.969Z,18.23
2022-10-23T01:25:03.126Z,18.19
2022-10-23T01:27:42.443Z,18.21
2022-10-23T01:30:13.998Z,18.24
2022-10-23T01:33:06.650Z,18.17
2022-10-23T01:35:49.624Z,18.14
2022-10-23T01:38:35.673Z,18.11
2022-10-23T01:41:16.940Z,18.14
2022-10-23T01:43:49.684Z,18.14
2022-10-23T01:46:18.152Z,18.12
2022-10-23T01:48:51.503Z,18.08
2022-10-23T01:51:21.211Z,18.01
2022-10-23T01:53:52.094Z,18.02
2022-10-23T01:56:22.652Z,18.04
2022-10-23T01:58:53.289Z,18.02
2022-10-23T02:01:24.404Z,18.04
2022-10-23T02:03:54.486Z,18.02
2022-10-23T02:06:21.339Z,17.96
2022-10-23T02:08:48.300Z,17.94
2022-10-23T02:11:18.174Z,17.90
2022-10-23T02:13:55.785Z,17.93
2022-10-23T02:16:54.028Z,17.95
2022-10-23T02:19:39.542Z,17.95
2022-10-23T02:22:14.567Z,17.91
2022-10-23T02:24:54.239Z,17.89
2022-10-23T02:27:39.023Z,17.90
2022-10-23T02:30:14.645Z,17.91
2022-10-23T02:32:50.915Z,17.90
2022-10-23T02:35:20.157Z,17.91
2022-10-23T02:37:56.984Z,17.93
2022-10-23T02:40:40.869Z,17.96
2022-10-23T02:43:24.361Z,17.97
2022-10-23T02:46:06.144Z,18.03
2022-10-23T02:48:42.850Z,17.99
2022-10-23T02:51:25.955Z,17.98
2022-10-23T02:54:05.808Z,17.96
2022-10-23T02:57:06.015Z,17.95
2022-10-23T02:59:46.879Z,17.92
2022-10-23T03:02:23.865Z,17.87
2022-10-23T03:04:53.774Z,17.84
2022-10-23T03:07:20.623Z,17.88
2022-10-23T03:09:47.663Z,17.85
2022-10-23T03:12:14.549Z,17.80
2022-10-23T03:14:41.278Z,17.75
2022-10-23T03:17:08.090Z,17.72
2022-10-23T03:19:34.720Z,17.68
2022-10-23T03:22:03.713Z,17.61
2022-10-23T03:24:30.372Z,17.58
2022-10-23T03:26:57.016Z,17.60
2022-10-23T03:29:30.502Z,17.62
2022-10-23T03:31:57.396Z,17.53
2022-10-23T03:34:24.113Z,17.51
2022-10-23T03:36:53.150Z,17.51
2022-10-23T03:39:20.569Z,17.49
2022-10-23T03:41:47.905Z,17.47
2022-10-23T03:44:16.112Z,17.48
2022-10-23T03:46:44.858Z,17.47
2022-10-23T03:49:11.602Z,17.48
2022-10-23T03:51:42.627Z,17.48
2022-10-23T03:54:09.752Z,17.53
2022-10-23T03:56:37.844Z,17.54
2022-10-23T03:59:07.114Z,17.58
2022-10-23T04:01:33.918Z,17.62
2022-10-23T04:04:00.904Z,17.70
2022-10-23T04:06:28.016Z,17.71
2022-10-23T04:08:57.681Z,17.69
2022-10-23T04:11:24.532Z,17.70
2022-10-23T04:13:51.192Z,17.76
2022-10-23T04:16:18.013Z,17.78
2022-10-23T04:18:45.229Z,17.78
2022-10-23T04:21:12.389Z,17.78
2022-10-23T04:23:39.229Z,17.83
2022-10-23T04:26:11.756Z,17.84
2022-10-23T04:28:38.540Z,17.83
2022-10-23T04:31:05.383Z,17.85
2022-10-23T04:33:32.179Z,17.82
2022-10-23T04:35:58.829Z,17.82
2022-10-23T04:38:26.112Z,17.82
2022-10-23T04:40:52.910Z,17.82
2022-10-23T04:43:21.797Z,17.78
2022-10-23T04:45:49.109Z,17.76
2022-10-23T04:48:15.819Z,17.77
2022-10-23T04:51:05.297Z,17.75
2022-10-23T04:53:54.223Z,17.77
2022-10-23T04:56:56.102Z,17.75
2022-10-23T04:59:24.017Z,17.67
2022-10-23T05:01:50.848Z,17.65
2022-10-23T05:04:18.230Z,17.74
2022-10-23T05:07:03.442Z,17.80
2022-10-23T05:09:40.628Z,17.76
2022-10-23T05:12:18.310Z,17.74
2022-10-23T05:14:44.961Z,17.82
2022-10-23T05:17:27.055Z,17.78
2022-10-23T05:19:55.653Z,17.81
2022-10-23T05:22:25.852Z,17.81
2022-10-23T05:24:54.440Z,17.82
2022-10-23T05:27:24.539Z,17.83
2022-10-23T05:29:53.103Z,17.85
2022-10-23T05:32:26.026Z,17.84
2022-10-23T05:34:53.977Z,17.80
2022-10-23T05:37:21.025Z,17.82
2022-10-23T05:39:47.892Z,17.78
2022-10-23T05:42:16.539Z,17.81
2022-10-23T05:44:43.211Z,17.86
2022-10-23T05:47:29.325Z,17.83
2022-10-23T05:50:05.940Z,17.84
2022-10-23T05:53:11.205Z,17.77
2022-10-23T05:55:49.743Z,17.76
2022-10-23T05:58:34.479Z,17.69
2022-10-23T06:01:27.743Z,17.65
2022-10-23T06:04:00.772Z,17.66
2022-10-23T06:06:47.395Z,17.58
2022-10-23T06:09:15.794Z,17.57
2022-10-23T06:11:42.970Z,17.56
2022-10-23T06:14:15.365Z,17.54
2022-10-23T06:16:42.621Z,17.58
2022-10-23T06:19:13.239Z,17.61
2022-10-23T06:21:41.700Z,17.65
2022-10-23T06:24:10.369Z,17.70
2022-10-23T06:26:55.692Z,17.85
2022-10-23T06:29:33.880Z,17.86
2022-10-23T06:32:00.958Z,17.94
2022-10-23T06:34:27.698Z,18.00
2022-10-23T06:36:54.601Z,18.03
2022-10-23T06:39:44.337Z,18.16
2022-10-23T06:42:16.834Z,18.16
2022-10-23T06:44:52.294Z,18.23
2022-10-23T06:47:38.994Z,18.31
2022-10-23T06:50:25.185Z,18.41
2022-10-23T06:52:53.918Z,18.42
2022-10-23T06:55:21.853Z,18.49
2022-10-23T06:57:48.579Z,18.53
2022-10-23T07:00:15.530Z,18.61
2022-10-23T07:02:48.927Z,18.75
2022-10-23T07:05:15.745Z,18.82
2022-10-23T07:07:43.372Z,18.94
2022-10-23T07:10:11.589Z,19.15
2022-10-23T07:12:44.213Z,19.30
2022-10-23T07:15:30.294Z,19.59
2022-10-23T07:17:57.892Z,19.91
2022-10-23T07:20:27.491Z,20.30
2022-10-23T07:22:56.078Z,20.84
2022-10-23T07:25:29.100Z,21.44
2022-10-23T07:27:56.565Z,21.78
2022-10-23T07:30:25.746Z,22.22
2022-10-23T07:32:54.823Z,22.74
2022-10-23T07:35:27.530Z,23.00
2022-10-23T07:38:00.694Z,23.05
2022-10-23T07:40:30.560Z,23.19
2022-10-23T07:42:57.440Z,22.93
2022-10-23T07:45:25.214Z,22.96
2022-10-23T07:47:52.937Z,22.73
2022-10-23T07:50:22.809Z,22.56
2022-10-23T07:52:49.643Z,22.43
2022-10-23T07:55:17.744Z,22.19
2022-10-23T07:58:00.552Z,22.12
2022-10-23T08:00:41.313Z,21.89
2022-10-23T08:03:19.008Z,21.74
2022-10-23T08:05:46.707Z,21.56
2022-10-23T08:08:13.616Z,21.37
2022-10-23T08:10:43.542Z,21.24
2022-10-23T08:13:14.575Z,21.10
2022-10-23T08:16:02.212Z,20.94
2022-10-23T08:18:49.420Z,20.80
2022-10-23T08:21:17.308Z,20.68
2022-10-23T08:23:45.289Z,20.60
2022-10-23T08:26:14.177Z,20.63
2022-10-23T08:28:41.156Z,20.68
2022-10-23T08:31:14.318Z,20.76
2022-10-23T08:33:47.157Z,20.80
2022-10-23T08:36:22.747Z,20.87
2022-10-23T08:38:50.015Z,21.03
2022-10-23T08:41:42.807Z,21.16
2022-10-23T08:44:28.447Z,21.27
2022-10-23T08:47:37.452Z,21.19
2022-10-23T08:50:44.368Z,21.25
2022-10-23T08:53:36.509Z,21.24
2022-10-23T08:56:12.004Z,21.30
2022-10-23T08:58:46.980Z,21.28
2022-10-23T09:01:23.595Z,21.34
2022-10-23T09:03:50.617Z,21.46
2022-10-23T09:06:30.941Z,21.59
2022-10-23T09:09:08.686Z,21.77
2022-10-23T09:11:47.481Z,21.92
2022-10-23T09:14:49.614Z,22.12
2022-10-23T09:17:24.312Z,22.31
2022-10-23T09:20:00.442Z,22.34
2022-10-23T09:22:27.990Z,22.24
2022-10-23T09:24:54.641Z,22.24
2022-10-23T09:27:21.391Z,22.26
2022-10-23T09:29:54.120Z,22.13
2022-10-23T09:32:33.301Z,21.99
2022-10-23T09:35:00.240Z,21.91
2022-10-23T09:37:30.314Z,21.83
2022-10-23T09:40:12.252Z,21.78
2022-10-23T09:42:51.362Z,21.78
2022-10-23T09:45:22.938Z,21.73
2022-10-23T09:47:49.727Z,21.72
2022-10-23T09:50:21.017Z,21.80
2022-10-23T09:52:52.383Z,21.84
2022-10-23T09:55:24.052Z,21.90
2022-10-23T09:57:53.080Z,21.95
2022-10-23T10:00:26.246Z,22.08
2022-10-23T10:03:01.597Z,22.50
2022-10-23T10:05:39.288Z,23.14
2022-10-23T10:08:39.397Z,23.68
2022-10-23T10:11:22.776Z,24.26
2022-10-23T10:14:31.640Z,25.10
2022-10-23T10:17:04.609Z,26.02
2022-10-23T10:19:51.253Z,26.50
2022-10-23T10:22:36.434Z,27.05
2022-10-23T10:25:21.321Z,28.97
2022-10-23T10:28:06.832Z,32.16
2022-10-23T10:30:52.303Z,34.84
2022-10-23T10:33:34.626Z,36.21
2022-10-23T10:36:05.072Z,38.12
2022-10-23T10:38:46.687Z,39.58
2022-10-23T10:41:32.624Z,37.93
2022-10-23T10:44:12.720Z,35.42
2022-10-23T10:46:42.352Z,33.96
2022-10-23T10:49:32.387Z,33.67
2022-10-23T10:52:33.527Z,34.51
2022-10-23T10:55:29.550Z,35.96
2022-10-23T10:58:00.020Z,36.26
2022-10-23T11:00:29.859Z,37.46
2022-10-23T11:03:21.840Z,37.97
2022-10-23T11:05:50.466Z,39.04
2022-10-23T11:08:27.795Z,37.66
2022-10-23T11:11:00.246Z,36.05
2022-10-23T11:13:33.693Z,34.92
2022-10-23T11:16:31.233Z,35.39
2022-10-23T11:19:03.857Z,36.70
2022-10-23T11:21:37.836Z,37.55
2022-10-23T11:24:13.566Z,37.46
2022-10-23T11:27:14.262Z,37.10
2022-10-23T11:29:51.702Z,37.80
2022-10-23T11:32:21.324Z,38.65
2022-10-23T11:34:48.001Z,39.48
2022-10-23T11:37:19.489Z,40.23
2022-10-23T11:40:03.127Z,40.31
2022-10-23T11:42:34.256Z,40.58
2022-10-23T11:45:00.987Z,40.28
2022-10-23T11:47:29.778Z,39.05
2022-10-23T11:50:08.593Z,38.37
2022-10-23T11:52:45.533Z,37.33
2022-10-23T11:55:20.459Z,36.12
2022-10-23T11:58:13.893Z,36.01
2022-10-23T12:00:52.071Z,36.01
2022-10-23T12:03:24.156Z,35.32
2022-10-23T12:06:00.398Z,34.68
2022-10-23T12:08:30.264Z,33.80
2022-10-23T12:10:57.439Z,33.00
2022-10-23T12:13:36.406Z,32.17
2022-10-23T12:16:10.274Z,31.53
2022-10-23T12:18:54.058Z,31.09
2022-10-23T12:21:28.242Z,30.66
2022-10-23T12:24:13.680Z,30.45
2022-10-23T12:26:55.029Z,30.22
2022-10-23T12:29:36.762Z,30.44
2022-10-23T12:32:22.905Z,30.34
2022-10-23T12:35:24.073Z,30.62
2022-10-23T12:38:20.106Z,30.40
2022-10-23T12:40:54.885Z,29.68
2022-10-23T12:43:26.069Z,29.38
2022-10-23T12:45:54.306Z,29.39
2022-10-23T12:48:24.204Z,29.52
2022-10-23T12:50:53.623Z,29.41
2022-10-23T12:53:22.956Z,29.43
2022-10-23T12:55:56.105Z,29.27
2022-10-23T12:58:30.603Z,28.99
2022-10-23T13:01:02.184Z,28.70
2022-10-23T13:03:30.511Z,28.48
2022-10-23T13:05:59.798Z,28.32
2022-10-23T13:08:33.955Z,28.28
2022-10-23T13:11:21.872Z,28.24
2022-10-23T13:13:50.447Z,27.77
2022-10-23T13:16:20.484Z,27.62
2022-10-23T13:18:47.296Z,27.54
2022-10-23T13:21:20.059Z,27.59
2022-10-23T13:23:47.686Z,27.60
2022-10-23T13:26:33.137Z,27.67
2022-10-23T13:29:06.164Z,27.67
2022-10-23T13:31:36.448Z,27.83
2022-10-23T13:34:06.958Z,27.95
2022-10-23T13:36:39.439Z,28.05
2022-10-23T13:39:09.163Z,28.02
2022-10-23T13:41:39.838Z,27.95
2022-10-23T13:44:06.885Z,27.95
2022-10-23T13:46:33.759Z,27.86
2022-10-23T13:49:00.536Z,27.75
2022-10-23T13:51:29.531Z,27.61
2022-10-23T13:53:58.346Z,27.65
2022-10-23T13:56:27.405Z,27.76
2022-10-23T13:58:54.639Z,27.65
2022-10-23T14:01:28.250Z,27.50
2022-10-23T14:03:56.278Z,27.31
2022-10-23T14:06:23.376Z,27.40
2022-10-23T14:08:50.498Z,27.39
2022-10-23T14:11:19.413Z,27.05
2022-10-23T14:13:46.624Z,27.09
2022-10-23T14:16:15.232Z,27.08
2022-10-23T14:18:42.591Z,27.07
2022-10-23T14:21:11.715Z,27.02
2022-10-23T14:23:38.576Z,26.88
2022-10-23T14:26:10.977Z,26.76
2022-10-23T14:28:38.238Z,26.63
2022-10-23T14:31:10.349Z,26.57
2022-10-23T14:33:37.121Z,26.53
2022-10-23T14:36:04.025Z,26.46
2022-10-23T14:38:30.665Z,26.53
2022-10-23T14:40:57.382Z,26.55
2022-10-23T14:43:25.129Z,26.52
2022-10-23T14:45:52.168Z,26.47
2022-10-23T14:48:18.895Z,26.46
2022-10-23T14:50:47.859Z,26.45
2022-10-23T14:53:15.915Z,26.43
2022-10-23T14:55:42.533Z,26.30
2022-10-23T14:58:09.238Z,26.22
2022-10-23T15:00:35.845Z,26.15
2022-10-23T15:03:02.489Z,26.14
2022-10-23T15:05:29.188Z,26.05
2022-10-23T15:07:56.575Z,26.01
2022-10-23T15:10:23.296Z,25.97
2022-10-23T15:12:49.912Z,25.85
2022-10-23T15:15:16.842Z,25.76
2022-10-23T15:17:43.784Z,25.67
2022-10-23T15:20:10.960Z,25.63
2022-10-23T15:22:37.619Z,25.58
2022-10-23T15:25:04.766Z,25.47
2022-10-23T15:27:31.435Z,25.45
2022-10-23T15:29:58.073Z,25.39
2022-10-23T15:32:24.771Z,25.39
2022-10-23T15:34:52.468Z,25.36
2022-10-23T15:37:19.247Z,25.26
2022-10-23T15:39:46.176Z,25.28
2022-10-23T15:42:12.945Z,25.26
2022-10-23T15:44:40.406Z,25.16
2022-10-23T15:47:07.452Z,25.12
2022-10-23T15:49:34.204Z,25.05
2022-10-23T15:52:02.247Z,25.01
2022-10-23T15:54:31.927Z,24.84
2022-10-23T15:57:00.134Z,24.77
2022-10-23T15:59:28.930Z,24.79
2022-10-23T16:01:56.076Z,24.78
2022-10-23T16:04:23.509Z,24.75
2022-10-23T16:06:50.251Z,24.70
2022-10-23T16:09:17.339Z,24.67
2022-10-23T16:11:44.132Z,24.63
2022-10-23T16:14:14.247Z,24.53
2022-10-23T16:16:41.186Z,24.53
2022-10-23T16:19:09.945Z,24.53
2022-10-23T16:21:37.077Z,24.53
2022-10-23T16:24:06.386Z,24.52
2022-10-23T16:26:33.460Z,24.51
2022-10-23T16:29:03.783Z,24.48
2022-10-23T16:31:31.400Z,24.50
2022-10-23T16:34:00.431Z,24.50
2022-10-23T16:36:27.599Z,24.42
2022-10-23T16:39:19.185Z,24.36
2022-10-23T16:42:05.376Z,24.25
2022-10-23T16:45:08.575Z,24.00
2022-10-23T16:47:35.477Z,23.95
2022-10-23T16:50:02.096Z,23.63
2022-10-23T16:52:28.811Z,23.07
2022-10-23T16:54:55.434Z,22.70
2022-10-23T16:57:22.094Z,21.89
2022-10-23T16:59:48.855Z,21.06
2022-10-23T17:02:15.639Z,21.01
2022-10-23T17:04:42.347Z,20.46
2022-10-23T17:07:09.168Z,20.86
2022-10-23T17:09:35.974Z,20.82
2022-10-23T17:12:02.727Z,20.73
2022-10-23T17:14:29.395Z,21.01
2022-10-23T17:16:59.188Z,21.10
2022-10-23T17:19:43.742Z,21.12
2022-10-23T17:22:12.542Z,21.18
2022-10-23T17:24:41.193Z,21.24
2022-10-23T17:27:08.134Z,21.31
2022-10-23T17:29:35.150Z,21.22
2022-10-23T17:32:02.205Z,21.27
2022-10-23T17:34:29.113Z,21.29
2022-10-23T17:36:56.580Z,21.33
2022-10-23T17:39:26.146Z,21.29
2022-10-23T17:41:53.353Z,21.31
2022-10-23T17:44:20.485Z,21.29
2022-10-23T17:46:53.133Z,21.28
2022-10-23T17:49:20.747Z,21.31
2022-10-23T17:51:52.410Z,21.27
2022-10-23T17:54:19.148Z,21.27
2022-10-23T17:56:46.569Z,21.24
2022-10-23T17:59:15.829Z,21.19
2022-10-23T18:01:46.778Z,21.23
2022-10-23T18:04:14.004Z,21.25
2022-10-23T18:06:46.250Z,21.24
2022-10-23T18:09:13.131Z,21.19
2022-10-23T18:11:46.887Z,21.22
2022-10-23T18:14:15.393Z,21.21
2022-10-23T18:16:42.148Z,21.35
2022-10-23T18:19:10.208Z,21.35
2022-10-23T18:21:37.876Z,21.38
2022-10-23T18:24:04.973Z,21.39
2022-10-23T18:26:34.915Z,21.14
2022-10-23T18:29:04.113Z,21.08
2022-10-23T18:31:30.951Z,21.03
2022-10-23T18:34:01.489Z,21.03
2022-10-23T18:36:32.221Z,21.06
2022-10-23T18:38:59.039Z,21.09
2022-10-23T18:41:26.084Z,21.11
2022-10-23T18:43:53.691Z,21.11
2022-10-23T18:46:20.767Z,21.13
2022-10-23T18:48:50.534Z,21.11
2022-10-23T18:51:20.579Z,21.13
2022-10-23T18:53:47.878Z,21.13
2022-10-23T18:56:16.586Z,21.06
2022-10-23T18:58:43.312Z,21.07
2022-10-23T19:01:10.215Z,21.07
2022-10-23T19:03:36.933Z,21.02
2022-10-23T19:06:06.492Z,21.08
2022-10-23T19:08:36.718Z,21.05
2022-10-23T19:11:05.087Z,20.95
2022-10-23T19:13:38.899Z,21.00
2022-10-23T19:16:14.447Z,20.95
2022-10-23T19:18:45.368Z,20.93
2022-10-23T19:21:12.969Z,20.82
2022-10-23T19:23:42.043Z,20.86
2022-10-23T19:26:11.989Z,20.87
2022-10-23T19:28:45.864Z,20.77
2022-10-23T19:31:13.536Z,20.85
2022-10-23T19:33:40.282Z,20.84
2022-10-23T19:36:11.193Z,20.80
2022-10-23T19:38:41.485Z,20.68
2022-10-23T19:41:08.814Z,20.68
2022-10-23T19:43:35.572Z,20.73
2022-10-23T19:46:07.666Z,20.64
2022-10-23T19:48:37.934Z,20.66
2022-10-23T19:51:07.406Z,20.72
2022-10-23T19:53:34.181Z,20.73
2022-10-23T19:56:02.830Z,20.72
2022-10-23T19:58:29.637Z,20.80
2022-10-23T20:00:56.312Z,20.78
2022-10-23T20:03:23.012Z,20.78
2022-10-23T20:05:49.748Z,20.75
2022-10-23T20:08:16.473Z,20.75
2022-10-23T20:10:44.461Z,20.75
2022-10-23T20:13:26.588Z,20.80
2022-10-23T20:15:53.411Z,20.77
2022-10-23T20:18:20.058Z,20.74
2022-10-23T20:20:46.673Z,20.72
2022-10-23T20:23:13.376Z,20.72
2022-10-23T20:25:40.045Z,20.72
2022-10-23T20:28:09.074Z,20.69
2022-10-23T20:30:42.520Z,20.65
2022-10-23T20:33:09.305Z,20.70
2022-10-23T20:35:41.399Z,20.72
2022-10-23T20:38:08.647Z,20.68
2022-10-23T20:40:35.556Z,20.70
2022-10-23T20:43:02.277Z,20.68
2022-10-23T20:45:28.915Z,20.65
2022-10-23T20:47:55.838Z,20.65
2022-10-23T20:50:23.786Z,20.66
2022-10-23T20:52:50.721Z,20.62
2022-10-23T20:55:18.388Z,20.58
2022-10-23T20:57:45.503Z,20.53
2022-10-23T21:00:12.976Z,20.52
2022-10-23T21:02:39.898Z,20.49
2022-10-23T21:05:07.113Z,20.43
2022-10-23T21:07:33.958Z,20.37
2022-10-23T21:10:01.084Z,20.37
2022-10-23T21:12:27.763Z,20.37
2022-10-23T21:14:54.436Z,20.35
2022-10-23T21:17:21.315Z,20.35
2022-10-23T21:19:48.014Z,20.30
2022-10-23T21:22:14.672Z,20.30
2022-10-23T21:24:41.299Z,20.30
2022-10-23T21:27:07.948Z,20.29
2022-10-23T21:29:34.610Z,20.24
2022-10-23T21:32:01.663Z,20.20
2022-10-23T21:34:28.972Z,20.18
2022-10-23T21:39:46.000Z,20.16
2022-10-23T21:42:13.801Z,20.11
2022-10-23T21:44:40.709Z,20.14
2022-10-23T21:47:07.488Z,20.13
2022-10-23T21:49:34.134Z,19.99
2022-10-23T21:52:00.774Z,20.04
2022-10-23T21:54:27.618Z,19.97
2022-10-23T21:56:54.774Z,20.00
2022-10-23T21:59:25.250Z,19.98
2022-10-23T22:01:53.517Z,19.98
2022-10-23T22:04:20.526Z,19.95
2022-10-23T22:06:48.855Z,19.97
2022-10-23T22:09:19.389Z,19.96
2022-10-23T22:11:46.576Z,19.95
2022-10-23T22:14:13.230Z,19.97
2022-10-23T22:16:41.852Z,19.95
2022-10-23T22:19:11.761Z,19.98
2022-10-23T22:21:38.746Z,19.99
2022-10-23T22:24:06.070Z,19.95
2022-10-23T22:26:36.377Z,20.02
2022-10-23T22:29:15.714Z,20.07
2022-10-23T22:31:45.691Z,20.05
2022-10-23T22:34:34.177Z,20.06
2022-10-23T22:37:05.676Z,20.04
2022-10-23T22:39:32.372Z,20.02
2022-10-23T22:41:59.042Z,19.98
2022-10-23T22:44:25.674Z,19.98
2022-10-23T22:46:52.300Z,19.95
2022-10-23T22:49:18.938Z,19.89
2022-10-23T22:51:45.658Z,19.92
2022-10-23T22:54:12.289Z,19.87
2022-10-23T22:56:38.953Z,19.81
2022-10-23T22:59:05.657Z,19.82
2022-10-23T23:01:40.275Z,19.84
2022-10-23T23:04:19.777Z,19.78
2022-10-23T23:06:53.970Z,19.82
2022-10-23T23:09:20.611Z,19.82
2022-10-23T23:11:52.990Z,19.83
2022-10-23T23:14:23.577Z,19.84
2022-10-23T23:16:52.543Z,19.87
2022-10-23T23:19:19.474Z,19.87
2022-10-23T23:21:46.323Z,19.85
2022-10-23T23:24:13.208Z,19.83
2022-10-23T23:26:40.030Z,19.85
2022-10-23T23:29:06.659Z,19.86
2022-10-23T23:31:33.297Z,19.87
2022-10-23T23:33:59.951Z,19.89
2022-10-23T23:36:27.263Z,19.92
2022-10-23T23:38:56.316Z,19.94
2022-10-23T23:41:24.373Z,19.93
2022-10-23T23:43:53.315Z,19.92
2022-10-23T23:46:20.085Z,19.93
2022-10-23T23:48:49.970Z,19.92
2022-10-23T23:51:17.902Z,19.95
2022-10-23T23:53:44.540Z,19.87
2022-10-23T23:56:11.213Z,19.88
2022-10-23T23:58:37.943Z,19.89
